Time;durP1;ratioP1;P1;durP2;ratioP2;P2;SDS_P1;SDS_P2;PMS_P1;PMS_P2;Temp;Humidity;BMP_temperature;BMP_pressure;BME280_temperature;BME280_humidity;BME280_pressure;Samples;Min_cycle;Max_cycle;Signal;HPM_P1;HPM_P2
2023/01/31 00:00:45;;;;;;;17.02;4.05;;;5.70;97.20;;;;;;5029466;28;20396;-65
2023/01/31 00:03:31;;;;;;;11.80;3.42;;;5.70;97.20;;;;;;5032338;28;20784;-64
2023/01/31 00:06:18;;;;;;;17.52;4.60;;;5.70;97.40;;;;;;5029871;28;20038;-65
2023/01/31 00:09:07;;;;;;;15.10;3.95;;;5.70;97.20;;;;;;5013195;28;20077;-65
2023/01/31 00:11:52;;;;;;;12.20;3.83;;;5.70;97.30;;;;;;5013968;28;20022;-65
2023/01/31 00:14:38;;;;;;;13.82;4.18;;;5.70;97.30;;;;;;5013653;28;20061;-65
2023/01/31 00:17:24;;;;;;;18.52;4.80;;;5.70;97.30;;;;;;5012312;28;20053;-64
2023/01/31 00:20:11;;;;;;;9.27;3.17;;;5.70;97.40;;;;;;5013644;28;20085;-64
2023/01/31 00:22:57;;;;;;;16.20;3.75;;;5.70;97.40;;;;;;5012803;28;20025;-64
2023/01/31 00:25:43;;;;;;;13.52;4.57;;;5.70;97.30;;;;;;5017129;28;20056;-64
2023/01/31 00:28:29;;;;;;;11.30;4.03;;;5.70;97.40;;;;;;5013218;28;20037;-63
2023/01/31 00:31:16;;;;;;;14.70;3.75;;;5.70;97.40;;;;;;5012882;28;20034;-62
2023/01/31 00:34:02;;;;;;;10.27;3.65;;;5.70;97.40;;;;;;5012796;28;20030;-63
2023/01/31 00:36:48;;;;;;;17.48;3.95;;;5.60;97.40;;;;;;5012208;28;20041;-63
2023/01/31 00:39:34;;;;;;;19.40;3.70;;;5.60;97.40;;;;;;5012883;28;20137;-63
2023/01/31 00:42:20;;;;;;;14.60;3.50;;;5.60;97.50;;;;;;5024160;28;20026;-64
2023/01/31 00:45:06;;;;;;;9.27;3.13;;;5.60;97.50;;;;;;5011973;28;20041;-64
2023/01/31 00:47:52;;;;;;;15.07;3.88;;;5.60;97.50;;;;;;5012820;28;20038;-63
2023/01/31 00:50:38;;;;;;;10.90;4.20;;;5.60;97.50;;;;;;5012274;28;20551;-63
2023/01/31 00:53:24;;;;;;;12.30;3.88;;;5.60;97.50;;;;;;5012203;28;20034;-63
2023/01/31 00:56:13;;;;;;;15.35;4.60;;;5.60;97.50;;;;;;5023342;28;20060;-63
2023/01/31 00:58:59;;;;;;;12.65;3.63;;;5.60;97.50;;;;;;5036259;28;20034;-63
2023/01/31 01:01:45;;;;;;;13.77;4.18;;;5.60;97.50;;;;;;5039222;28;20036;-64
2023/01/31 01:04:31;;;;;;;12.32;4.95;;;5.60;97.70;;;;;;5049860;28;20029;-63
2023/01/31 01:07:17;;;;;;;15.30;4.15;;;5.60;97.60;;;;;;5051072;28;20554;-64
2023/01/31 01:10:04;;;;;;;11.45;3.38;;;5.70;97.60;;;;;;5051485;28;20033;-64
2023/01/31 01:12:50;;;;;;;18.52;4.38;;;5.70;97.60;;;;;;5043977;28;20116;-63
2023/01/31 01:15:37;;;;;;;13.07;3.90;;;5.70;97.60;;;;;;5030313;28;20021;-63
2023/01/31 01:18:23;;;;;;;8.18;3.33;;;5.80;97.60;;;;;;5039099;28;20033;-63
2023/01/31 01:21:12;;;;;;;14.48;3.85;;;5.80;97.80;;;;;;5050648;28;20025;-63
2023/01/31 01:24:00;;;;;;;13.52;3.13;;;5.90;97.60;;;;;;5038944;28;20050;-63
2023/01/31 01:26:46;;;;;;;15.15;3.53;;;5.90;97.60;;;;;;5030731;28;20034;-63
2023/01/31 01:29:32;;;;;;;22.15;4.57;;;5.90;97.60;;;;;;5032946;28;20576;-63
2023/01/31 01:32:19;;;;;;;10.45;4.15;;;6.00;97.60;;;;;;5042564;28;20036;-64
2023/01/31 01:35:05;;;;;;;9.20;3.63;;;6.00;97.30;;;;;;5042970;28;20467;-64
2023/01/31 01:37:51;;;;;;;10.75;3.45;;;6.00;97.50;;;;;;5031778;28;20060;-64
2023/01/31 01:40:37;;;;;;;8.40;3.17;;;6.00;97.40;;;;;;5031245;28;20531;-63
2023/01/31 01:43:38;;;;;;;10.07;2.90;;;6.10;97.20;;;;;;5031725;28;20408;-64
2023/01/31 01:46:37;;;;;;;9.15;3.22;;;6.10;97.30;;;;;;5030180;28;20025;-63
2023/01/31 01:49:32;;;;;;;13.30;3.92;;;6.10;97.10;;;;;;5042572;28;20029;-64
2023/01/31 01:52:18;;;;;;;13.88;4.03;;;6.00;97.10;;;;;;5051118;28;20282;-65
2023/01/31 01:55:31;;;;;;;9.05;2.83;;;6.00;97.00;;;;;;5049958;28;20059;-64
2023/01/31 01:58:24;;;;;;;16.42;3.53;;;6.00;96.90;;;;;;5037161;28;20144;-64
2023/01/31 02:01:12;;;;;;;7.55;3.28;;;6.00;97.00;;;;;;5045605;28;20038;-64
2023/01/31 02:03:58;;;;;;;10.63;3.85;;;6.00;97.00;;;;;;5030419;28;20489;-63
2023/01/31 02:06:46;;;;;;;9.07;2.33;;;6.00;97.10;;;;;;5030272;28;20040;-63
2023/01/31 02:09:52;;;;;;;11.30;3.78;;;6.00;97.10;;;;;;5029719;28;20083;-65
2023/01/31 02:12:39;;;;;;;14.00;3.28;;;6.00;97.10;;;;;;5030439;28;20037;-65
2023/01/31 02:15:25;;;;;;;9.80;3.70;;;6.00;97.10;;;;;;5027728;28;20025;-64
2023/01/31 02:18:11;;;;;;;12.20;2.80;;;5.90;97.10;;;;;;5046743;28;20033;-64
2023/01/31 02:21:16;;;;;;;11.73;3.30;;;6.00;97.20;;;;;;5030931;28;20021;-65
2023/01/31 02:24:48;;;;;;;9.63;2.72;;;6.00;97.20;;;;;;5030955;28;20025;-65
2023/01/31 02:27:43;;;;;;;9.65;3.17;;;6.00;97.20;;;;;;5024302;28;20038;-65
2023/01/31 02:30:32;;;;;;;10.10;3.78;;;6.00;97.20;;;;;;5015244;28;20043;-64
2023/01/31 02:33:37;;;;;;;10.68;3.10;;;6.00;97.20;;;;;;5030392;28;20080;-64
2023/01/31 02:36:35;;;;;;;5.60;2.65;;;6.00;97.20;;;;;;5030636;28;20052;-64
2023/01/31 02:39:21;;;;;;;15.73;3.78;;;6.00;97.20;;;;;;5028751;28;20484;-63
2023/01/31 02:42:28;;;;;;;9.65;3.17;;;6.00;97.20;;;;;;5049717;28;20029;-64
2023/01/31 02:45:28;;;;;;;12.77;3.67;;;6.10;97.20;;;;;;5050145;28;20104;-63
2023/01/31 02:48:42;;;;;;;14.70;2.60;;;6.10;97.00;;;;;;5044126;28;20404;-63
2023/01/31 02:51:40;;;;;;;11.30;3.10;;;6.00;97.00;;;;;;5046941;28;20025;-64
2023/01/31 02:56:13;;;;;;;10.32;2.30;;;6.10;97.00;;;;;;5037933;28;20025;-64
2023/01/31 02:57:45;;;;;;;11.43;2.65;;;6.10;97.00;;;;;;5034395;28;20046;-63
2023/01/31 03:00:33;;;;;;;9.85;3.15;;;6.00;97.00;;;;;;5011566;28;20037;-64
2023/01/31 03:03:27;;;;;;;12.82;3.80;;;6.00;97.00;;;;;;5046471;28;20073;-64
2023/01/31 03:06:24;;;;;;;7.88;3.88;;;5.90;96.90;;;;;;5034300;28;20489;-64
2023/01/31 03:09:23;;;;;;;10.73;2.75;;;5.90;97.00;;;;;;5034612;28;20155;-64
2023/01/31 03:12:56;;;;;;;9.80;3.58;;;5.90;97.20;;;;;;5034850;28;20067;-64
2023/01/31 03:19:45;;;;;;;14.52;5.28;;;5.70;97.00;;;;;;4966391;28;20201;-64
2023/01/31 03:22:36;;;;;;;7.47;2.70;;;5.70;97.30;;;;;;5033676;28;20551;-64
2023/01/31 03:25:25;;;;;;;7.50;2.72;;;5.60;97.30;;;;;;5033791;28;20112;-63
2023/01/31 03:28:16;;;;;;;8.65;2.55;;;5.60;97.20;;;;;;5033434;28;20112;-63
2023/01/31 03:31:14;;;;;;;9.38;2.85;;;5.60;97.40;;;;;;5033742;28;20025;-64
2023/01/31 03:34:07;;;;;;;9.05;2.65;;;5.50;97.40;;;;;;5033777;28;20503;-63
2023/01/31 03:37:18;;;;;;;10.10;2.40;;;5.50;97.50;;;;;;5033449;28;20103;-64
2023/01/31 03:40:16;;;;;;;8.35;2.50;;;5.50;97.50;;;;;;5048554;28;20405;-65
2023/01/31 03:43:16;;;;;;;9.85;2.65;;;5.50;97.50;;;;;;5052440;28;20139;-64
2023/01/31 03:46:17;;;;;;;10.32;2.47;;;5.40;97.60;;;;;;5033469;28;20064;-65
2023/01/31 03:49:07;;;;;;;9.77;2.92;;;5.40;97.70;;;;;;5040125;28;20518;-64
2023/01/31 03:52:03;;;;;;;5.22;2.28;;;5.30;97.90;;;;;;5046874;28;20049;-64
2023/01/31 03:54:59;;;;;;;17.13;3.22;;;5.40;97.70;;;;;;5033343;28;20080;-64
2023/01/31 03:57:50;;;;;;;6.47;2.40;;;5.30;97.90;;;;;;5038166;28;20100;-64
2023/01/31 04:00:39;;;;;;;12.60;2.67;;;5.30;98.00;;;;;;5032477;28;20040;-64
2023/01/31 04:03:33;;;;;;;11.70;3.70;;;5.20;98.00;;;;;;5046298;28;20115;-64
2023/01/31 04:06:19;;;;;;;8.75;3.50;;;5.20;98.10;;;;;;5032953;28;20369;-64
2023/01/31 04:09:05;;;;;;;9.85;3.45;;;5.20;98.10;;;;;;5032883;28;20025;-64
2023/01/31 04:11:51;;;;;;;7.72;2.60;;;5.20;98.10;;;;;;5034357;28;20484;-64
2023/01/31 04:14:37;;;;;;;9.45;3.33;;;5.20;98.10;;;;;;5044216;28;20051;-64
2023/01/31 04:17:23;;;;;;;16.05;3.38;;;5.20;98.10;;;;;;5053596;28;20040;-65
2023/01/31 04:20:09;;;;;;;5.50;2.80;;;5.10;98.10;;;;;;5038095;28;20120;-64
2023/01/31 04:22:55;;;;;;;9.43;3.15;;;5.20;98.20;;;;;;5032382;28;20030;-64
2023/01/31 04:25:41;;;;;;;10.70;3.67;;;5.20;98.30;;;;;;5035042;28;20036;-64
2023/01/31 04:28:28;;;;;;;9.85;2.75;;;5.20;98.30;;;;;;5050853;28;20068;-65
2023/01/31 04:31:13;;;;;;;11.15;3.38;;;5.10;98.40;;;;;;5032997;28;20080;-65
2023/01/31 04:33:59;;;;;;;9.98;2.90;;;5.20;98.40;;;;;;5031340;28;20026;-64
2023/01/31 04:36:45;;;;;;;14.73;3.45;;;5.10;98.30;;;;;;5032415;28;20044;-64
2023/01/31 04:39:31;;;;;;;12.35;2.97;;;5.20;98.40;;;;;;5020402;28;20029;-64
2023/01/31 04:42:17;;;;;;;9.23;2.83;;;5.10;98.40;;;;;;5046247;28;20507;-64
2023/01/31 04:45:04;;;;;;;7.45;2.58;;;5.10;98.40;;;;;;5037782;28;20112;-64
2023/01/31 04:47:50;;;;;;;16.83;3.38;;;5.20;98.50;;;;;;5018331;28;20124;-65
2023/01/31 04:50:36;;;;;;;7.97;3.30;;;5.20;98.50;;;;;;5032113;28;20029;-64
2023/01/31 04:53:22;;;;;;;8.65;3.67;;;5.20;98.70;;;;;;5016767;28;20029;-65
2023/01/31 04:56:08;;;;;;;10.18;2.70;;;5.20;98.60;;;;;;5035343;28;20443;-64
2023/01/31 04:58:53;;;;;;;10.93;3.33;;;5.10;98.60;;;;;;5046365;28;20033;-64
2023/01/31 05:01:40;;;;;;;12.68;3.10;;;5.10;98.60;;;;;;5032086;28;20035;-64
2023/01/31 05:04:26;;;;;;;6.13;2.50;;;5.20;98.70;;;;;;5031766;28;20234;-64
2023/01/31 05:07:12;;;;;;;9.95;2.60;;;5.20;98.70;;;;;;5031771;28;20037;-64
2023/01/31 05:09:58;;;;;;;7.13;2.50;;;5.20;98.80;;;;;;5017785;28;20488;-64
2023/01/31 05:12:45;;;;;;;8.30;3.10;;;5.20;98.70;;;;;;5033175;28;20057;-66
2023/01/31 05:15:31;;;;;;;11.23;3.67;;;5.30;99.00;;;;;;5041173;28;20060;-65
2023/01/31 05:18:17;;;;;;;8.13;2.97;;;5.30;98.70;;;;;;5047830;28;20471;-64
2023/01/31 05:21:04;;;;;;;10.35;3.25;;;5.30;98.70;;;;;;5046921;28;20388;-64
2023/01/31 05:23:50;;;;;;;10.43;3.80;;;5.20;98.70;;;;;;5038184;28;20033;-63
2023/01/31 05:26:36;;;;;;;9.57;2.55;;;5.20;98.70;;;;;;5061679;28;20040;-65
2023/01/31 05:29:23;;;;;;;6.40;2.40;;;5.20;98.70;;;;;;5043945;28;20075;-64
2023/01/31 05:32:09;;;;;;;10.57;2.78;;;5.20;98.80;;;;;;5050121;28;20036;-64
2023/01/31 05:34:55;;;;;;;9.20;3.03;;;5.20;98.80;;;;;;5049525;28;20025;-64
2023/01/31 05:37:41;;;;;;;7.93;2.67;;;5.20;98.90;;;;;;5050240;28;20057;-65
2023/01/31 05:40:27;;;;;;;14.10;4.05;;;5.30;98.90;;;;;;5060584;28;20404;-64
2023/01/31 05:43:13;;;;;;;15.07;2.60;;;5.30;98.90;;;;;;5030766;28;20108;-64
2023/01/31 05:45:59;;;;;;;7.22;3.20;;;5.30;98.90;;;;;;5031836;28;20496;-65
2023/01/31 05:48:45;;;;;;;13.13;3.10;;;5.30;99.00;;;;;;5033138;28;20033;-65
2023/01/31 05:51:31;;;;;;;13.98;4.28;;;5.30;99.00;;;;;;5043728;28;20024;-65
2023/01/31 05:54:17;;;;;;;8.43;3.13;;;5.30;99.10;;;;;;5031243;28;20029;-64
2023/01/31 05:57:03;;;;;;;9.00;3.28;;;5.40;99.10;;;;;;5024036;28;20141;-66
2023/01/31 05:59:49;;;;;;;7.25;2.55;;;5.40;99.10;;;;;;5032310;28;20017;-65
2023/01/31 06:02:35;;;;;;;12.27;3.53;;;5.50;99.20;;;;;;5031700;28;20282;-65
2023/01/31 06:05:21;;;;;;;9.50;3.10;;;5.50;99.20;;;;;;5028524;28;20091;-66
2023/01/31 06:08:06;;;;;;;9.73;3.80;;;5.60;99.20;;;;;;5033726;28;20313;-64
2023/01/31 06:10:52;;;;;;;11.05;3.42;;;5.60;99.20;;;;;;5032462;28;20515;-64
2023/01/31 06:13:42;;;;;;;8.82;2.65;;;5.70;99.20;;;;;;5041436;28;20446;-64
2023/01/31 06:16:28;;;;;;;7.32;3.40;;;5.70;99.20;;;;;;5057390;28;20504;-65
2023/01/31 06:19:14;;;;;;;7.70;2.63;;;5.70;99.20;;;;;;5034658;28;20362;-64
2023/01/31 06:22:00;;;;;;;7.47;2.88;;;5.70;99.20;;;;;;5040023;28;20028;-64
2023/01/31 06:24:46;;;;;;;9.18;4.85;;;5.70;99.20;;;;;;5052406;28;20032;-64
2023/01/31 06:27:33;;;;;;;14.35;2.90;;;5.80;99.20;;;;;;5038544;28;20025;-64
2023/01/31 06:30:19;;;;;;;9.15;3.38;;;5.90;99.30;;;;;;5038008;28;20033;-64
2023/01/31 06:33:05;;;;;;;9.38;2.95;;;5.90;99.20;;;;;;5032015;28;20022;-64
2023/01/31 06:35:51;;;;;;;11.05;3.28;;;5.90;99.30;;;;;;5053435;28;20025;-64
2023/01/31 06:38:37;;;;;;;11.88;3.10;;;5.90;99.20;;;;;;5049532;28;20529;-65
2023/01/31 06:41:22;;;;;;;13.02;3.45;;;6.00;99.20;;;;;;5036838;28;20076;-64
2023/01/31 06:44:09;;;;;;;16.75;3.60;;;6.00;99.20;;;;;;5034143;28;20083;-64
2023/01/31 06:46:55;;;;;;;11.75;3.47;;;6.00;99.20;;;;;;5040598;28;20515;-64
2023/01/31 06:49:40;;;;;;;11.02;3.45;;;6.10;99.20;;;;;;5039465;28;20017;-63
2023/01/31 06:52:26;;;;;;;12.05;3.55;;;6.00;99.20;;;;;;5022784;28;20033;-65
2023/01/31 06:55:12;;;;;;;14.43;4.47;;;6.10;99.20;;;;;;5042749;28;20400;-65
2023/01/31 06:57:58;;;;;;;10.40;3.50;;;6.10;99.20;;;;;;5038260;28;20045;-64
2023/01/31 07:00:44;;;;;;;10.25;2.97;;;6.10;99.20;;;;;;5034297;28;20032;-64
2023/01/31 07:03:30;;;;;;;7.10;3.35;;;6.20;99.20;;;;;;5037080;28;20033;-64
2023/01/31 07:06:19;;;;;;;9.98;4.03;;;6.20;99.20;;;;;;5044388;28;20041;-65
2023/01/31 07:09:06;;;;;;;11.05;2.78;;;6.20;99.20;;;;;;5034576;28;20108;-64
2023/01/31 07:11:52;;;;;;;13.00;4.43;;;6.20;99.20;;;;;;5047891;28;20072;-65
2023/01/31 07:14:38;;;;;;;15.88;5.07;;;6.30;99.20;;;;;;5051041;28;20030;-65
2023/01/31 07:17:24;;;;;;;8.77;3.10;;;6.20;99.30;;;;;;5055929;28;20476;-64
2023/01/31 07:20:10;;;;;;;11.70;2.97;;;6.30;99.30;;;;;;5034972;28;20108;-63
2023/01/31 07:22:57;;;;;;;8.50;3.47;;;6.30;99.40;;;;;;5032952;28;20104;-64
2023/01/31 07:25:43;;;;;;;17.50;3.85;;;6.20;99.40;;;;;;5033385;28;20025;-64
2023/01/31 07:28:29;;;;;;;9.38;4.03;;;6.30;99.40;;;;;;5034404;28;20084;-64
2023/01/31 07:31:15;;;;;;;11.93;3.13;;;6.30;99.50;;;;;;5046859;28;20370;-64
2023/01/31 07:34:01;;;;;;;10.50;3.40;;;6.30;99.50;;;;;;5034667;28;20116;-65
2023/01/31 07:36:49;;;;;;;18.63;3.72;;;6.30;99.50;;;;;;5035113;28;20112;-64
2023/01/31 07:39:34;;;;;;;11.52;3.95;;;6.40;99.60;;;;;;5038695;28;20546;-64
2023/01/31 07:42:20;;;;;;;11.10;4.43;;;6.40;99.80;;;;;;5035341;28;20503;-63
2023/01/31 07:45:10;;;;;;;11.57;3.38;;;6.50;99.80;;;;;;5036453;28;20059;-65
2023/01/31 07:47:58;;;;;;;18.33;4.15;;;6.50;99.70;;;;;;5049395;28;20040;-64
2023/01/31 07:50:44;;;;;;;10.73;3.50;;;6.50;99.70;;;;;;5047123;28;20040;-64
2023/01/31 07:53:33;;;;;;;12.45;4.03;;;6.50;99.70;;;;;;5036637;28;20025;-65
2023/01/31 07:56:20;;;;;;;9.77;3.88;;;6.50;99.70;;;;;;5049857;28;20067;-65
2023/01/31 07:59:06;;;;;;;10.88;3.50;;;6.60;99.70;;;;;;5040025;28;20040;-65
2023/01/31 08:04:57;;;;;;;10.82;3.17;;;6.60;99.70;;;;;;5045637;28;20028;-65
2023/01/31 08:07:43;;;;;;;13.38;3.97;;;6.60;99.70;;;;;;5044674;28;20028;-66
2023/01/31 08:10:29;;;;;;;10.23;4.10;;;6.60;99.70;;;;;;5041632;28;20067;-64
2023/01/31 08:13:15;;;;;;;8.15;2.83;;;6.60;99.70;;;;;;5038535;28;20124;-63
2023/01/31 08:16:02;;;;;;;9.02;3.28;;;6.60;99.70;;;;;;5042692;28;20021;-64
2023/01/31 08:18:48;;;;;;;7.90;2.90;;;6.70;99.70;;;;;;5032775;28;20120;-64
2023/01/31 08:21:34;;;;;;;8.02;2.95;;;6.70;99.70;;;;;;5042293;28;20119;-64
2023/01/31 08:24:20;;;;;;;13.38;3.20;;;6.70;99.70;;;;;;5033220;28;20631;-63
2023/01/31 08:27:06;;;;;;;13.23;3.63;;;6.80;99.70;;;;;;5033312;28;20037;-64
2023/01/31 08:29:53;;;;;;;8.80;2.90;;;6.80;99.70;;;;;;5042159;28;20017;-64
2023/01/31 08:32:38;;;;;;;10.63;3.80;;;6.80;99.70;;;;;;5038202;28;20468;-63
2023/01/31 08:35:25;;;;;;;10.27;3.38;;;6.80;99.70;;;;;;5033489;28;20431;-64
2023/01/31 08:38:11;;;;;;;9.25;2.95;;;6.90;99.80;;;;;;5031480;28;20040;-64
2023/01/31 08:40:58;;;;;;;14.73;4.03;;;6.90;99.70;;;;;;5041564;28;20057;-64
2023/01/31 08:43:23;;;;;;;8.75;2.85;;;6.90;99.70;;;;;;5050340;28;20060;-64
2023/01/31 08:45:49;;;;;;;6.90;3.00;;;7.00;99.80;;;;;;5033701;28;20033;-65
2023/01/31 08:48:14;;;;;;;8.40;3.05;;;7.00;99.80;;;;;;5034534;28;20080;-64
2023/01/31 08:50:40;;;;;;;8.50;3.22;;;7.00;99.80;;;;;;5037204;28;20033;-64
2023/01/31 08:53:05;;;;;;;6.07;2.90;;;7.00;99.80;;;;;;5035764;28;20029;-65
2023/01/31 08:55:50;;;;;;;7.13;2.95;;;7.00;99.80;;;;;;5050582;28;20561;-64
2023/01/31 08:58:15;;;;;;;13.02;3.67;;;7.00;99.80;;;;;;5043398;28;20041;-65
2023/01/31 09:00:41;;;;;;;9.60;3.28;;;7.10;99.90;;;;;;5045171;28;20025;-64
2023/01/31 09:03:14;;;;;;;10.95;3.33;;;7.10;99.90;;;;;;5042839;28;20043;-63
2023/01/31 09:05:40;;;;;;;8.05;3.75;;;7.20;99.90;;;;;;5042370;28;20017;-64
2023/01/31 09:08:05;;;;;;;8.57;2.88;;;7.20;99.80;;;;;;5033086;28;20044;-63
2023/01/31 09:10:31;;;;;;;11.55;3.47;;;7.20;99.80;;;;;;5048124;28;20036;-64
2023/01/31 09:12:59;;;;;;;10.75;3.28;;;7.20;99.80;;;;;;5035870;28;20021;-66
2023/01/31 09:15:25;;;;;;;14.77;4.18;;;7.30;99.80;;;;;;5042848;28;20036;-65
2023/01/31 09:17:51;;;;;;;13.45;3.78;;;7.20;99.70;;;;;;5037034;28;20120;-63
2023/01/31 09:20:17;;;;;;;11.23;3.92;;;7.30;99.70;;;;;;5037354;28;20056;-64
2023/01/31 09:22:43;;;;;;;9.05;3.33;;;7.20;99.70;;;;;;5045085;28;20040;-64
2023/01/31 09:25:09;;;;;;;11.38;3.63;;;7.30;99.70;;;;;;5038692;28;20055;-64
2023/01/31 09:27:37;;;;;;;15.80;4.53;;;7.30;99.60;;;;;;5030317;28;20044;-65
2023/01/31 09:30:05;;;;;;;11.60;3.78;;;7.30;99.60;;;;;;5050812;28;20021;-65
2023/01/31 09:32:31;;;;;;;14.43;4.18;;;7.30;99.60;;;;;;5049804;28;20033;-64
2023/01/31 09:34:57;;;;;;;8.65;3.70;;;7.40;99.60;;;;;;5037048;28;20020;-63
2023/01/31 09:37:23;;;;;;;12.15;4.35;;;7.40;99.60;;;;;;5018477;28;20033;-64
2023/01/31 09:39:49;;;;;;;9.90;3.45;;;7.50;99.60;;;;;;5031763;28;20381;-64
2023/01/31 09:42:21;;;;;;;9.82;3.42;;;7.50;99.60;;;;;;5033296;28;20029;-65
2023/01/31 09:44:56;;;;;;;9.80;3.75;;;7.50;99.50;;;;;;5039810;28;20116;-65
2023/01/31 09:47:27;;;;;;;11.95;4.45;;;7.60;99.50;;;;;;5037366;28;20029;-65
2023/01/31 09:50:11;;;;;;;11.82;4.90;;;7.60;99.50;;;;;;5037542;28;20033;-65
2023/01/31 09:52:37;;;;;;;12.43;3.83;;;7.70;99.40;;;;;;5028852;28;20034;-65
2023/01/31 09:55:04;;;;;;;11.13;4.68;;;7.70;99.30;;;;;;5049748;28;20060;-65
2023/01/31 09:57:35;;;;;;;11.38;3.80;;;7.70;99.30;;;;;;5023842;28;20038;-65
2023/01/31 10:00:19;;;;;;;18.65;4.63;;;7.80;99.30;;;;;;5012949;28;20084;-65
2023/01/31 10:03:22;;;;;;;12.17;3.53;;;7.90;99.30;;;;;;5012380;28;20033;-66
2023/01/31 10:05:53;;;;;;;14.52;3.08;;;7.90;99.20;;;;;;5027116;28;20036;-65
2023/01/31 10:08:47;;;;;;;16.75;3.58;;;7.90;99.10;;;;;;5011390;28;20086;-65
2023/01/31 10:11:34;;;;;;;13.80;3.90;;;8.00;99.00;;;;;;5006753;28;21963;-65
2023/01/31 10:14:20;;;;;;;12.38;3.97;;;8.00;99.00;;;;;;5019174;28;20700;-65
2023/01/31 10:16:58;;;;;;;13.75;3.97;;;8.00;98.90;;;;;;5010833;28;20041;-65
2023/01/31 10:19:29;;;;;;;15.13;3.85;;;8.00;98.80;;;;;;5011290;28;20120;-65
2023/01/31 10:22:01;;;;;;;10.13;3.17;;;8.10;98.80;;;;;;5011558;28;20029;-65
2023/01/31 10:24:58;;;;;;;9.80;3.47;;;8.10;98.70;;;;;;5009383;28;20057;-65
2023/01/31 10:27:43;;;;;;;9.80;3.47;;;8.10;98.70;;;;;;5001829;28;20145;-65
2023/01/31 10:30:19;;;;;;;12.38;3.72;;;8.10;98.70;;;;;;5009725;28;20033;-66
2023/01/31 10:32:50;;;;;;;9.40;3.53;;;8.10;98.60;;;;;;5009178;28;20120;-63
2023/01/31 10:35:29;;;;;;;12.98;2.97;;;8.20;98.60;;;;;;5009795;28;20088;-63
2023/01/31 10:38:06;;;;;;;11.52;3.85;;;8.20;98.50;;;;;;5008228;28;20068;-63
2023/01/31 10:40:41;;;;;;;12.82;3.30;;;8.20;98.50;;;;;;5009934;28;20037;-64
2023/01/31 10:43:37;;;;;;;10.98;4.07;;;8.20;98.50;;;;;;5009128;28;20034;-64
2023/01/31 10:46:10;;;;;;;11.82;3.63;;;8.20;98.60;;;;;;5011191;28;20488;-64
2023/01/31 10:48:35;;;;;;;7.50;3.47;;;8.20;98.70;;;;;;5009625;28;20501;-64
2023/01/31 10:51:04;;;;;;;10.25;3.58;;;8.30;98.70;;;;;;5008869;28;20036;-64
2023/01/31 10:53:56;;;;;;;9.00;2.83;;;8.30;98.70;;;;;;5010204;28;20022;-67
2023/01/31 10:56:48;;;;;;;13.85;3.72;;;8.40;98.70;;;;;;5023729;28;20413;-67
2023/01/31 10:59:22;;;;;;;10.90;3.70;;;8.40;98.60;;;;;;5031509;28;20045;-66
2023/01/31 11:01:48;;;;;;;10.85;4.45;;;8.40;98.60;;;;;;5030107;28;20574;-66
2023/01/31 11:04:33;;;;;;;13.52;4.32;;;8.40;98.60;;;;;;5030880;28;20052;-66
2023/01/31 11:07:01;;;;;;;14.20;3.63;;;8.50;98.60;;;;;;5029284;28;20059;-65
2023/01/31 11:09:31;;;;;;;13.35;4.40;;;8.50;98.60;;;;;;5033746;28;20309;-65
2023/01/31 11:12:04;;;;;;;9.50;4.03;;;8.50;98.60;;;;;;5030158;28;20082;-66
2023/01/31 11:14:30;;;;;;;9.73;3.17;;;8.60;98.50;;;;;;5029131;28;20025;-66
2023/01/31 11:17:07;;;;;;;9.57;4.25;;;8.60;98.50;;;;;;5031747;28;20055;-65
2023/01/31 11:19:49;;;;;;;13.65;3.42;;;8.70;98.40;;;;;;5028378;28;20095;-63
2023/01/31 11:22:45;;;;;;;12.77;4.22;;;8.70;98.40;;;;;;5032961;28;20498;-63
2023/01/31 11:25:20;;;;;;;13.65;4.60;;;8.70;98.30;;;;;;5030533;28;20041;-64
2023/01/31 11:27:47;;;;;;;8.93;3.67;;;8.80;98.30;;;;;;5031565;28;20093;-64
2023/01/31 11:30:27;;;;;;;11.55;4.20;;;8.70;98.20;;;;;;5031013;28;20124;-63
2023/01/31 11:32:53;;;;;;;15.18;4.22;;;8.70;98.20;;;;;;5024901;28;20041;-63
2023/01/31 11:35:20;;;;;;;12.88;4.47;;;8.70;98.20;;;;;;5031745;28;20415;-64
2023/01/31 11:38:11;;;;;;;15.00;5.20;;;8.60;98.20;;;;;;5033533;28;20043;-64
2023/01/31 11:40:39;;;;;;;7.55;3.50;;;8.70;98.30;;;;;;5028745;28;20050;-64
2023/01/31 11:43:22;;;;;;;12.60;4.93;;;8.70;98.40;;;;;;5035751;28;20029;-63
2023/01/31 11:45:59;;;;;;;9.63;4.38;;;8.70;98.50;;;;;;5032492;28;20381;-64
2023/01/31 11:48:32;;;;;;;15.98;4.15;;;8.70;98.50;;;;;;5035893;28;20031;-64
2023/01/31 11:51:00;;;;;;;13.85;5.05;;;8.70;98.50;;;;;;5035944;28;20040;-64
2023/01/31 11:53:35;;;;;;;12.20;5.07;;;8.70;98.50;;;;;;5032816;28;20251;-64
2023/01/31 11:56:15;;;;;;;9.73;4.10;;;8.70;98.50;;;;;;5033532;28;20559;-66
2023/01/31 11:58:42;;;;;;;9.98;3.20;;;8.70;98.50;;;;;;5032375;28;20812;-64
2023/01/31 12:01:21;;;;;;;9.90;4.97;;;8.60;98.50;;;;;;5034967;28;20437;-64
2023/01/31 12:03:50;;;;;;;10.05;4.07;;;8.60;98.50;;;;;;5032604;28;20437;-65
2023/01/31 12:07:04;;;;;;;8.52;4.28;;;8.60;98.50;;;;;;5032140;28;20115;-63
2023/01/31 12:09:41;;;;;;;11.57;3.83;;;8.60;98.50;;;;;;5027691;28;20498;-64
2023/01/31 12:12:33;;;;;;;12.95;4.75;;;8.60;98.50;;;;;;5031315;28;20031;-63
2023/01/31 12:15:14;;;;;;;11.10;4.53;;;8.60;98.50;;;;;;5031410;28;20044;-63
2023/01/31 12:17:46;;;;;;;17.75;5.45;;;8.60;98.50;;;;;;5032286;28;20124;-64
2023/01/31 12:20:50;;;;;;;9.50;3.88;;;8.50;98.50;;;;;;5031707;28;20032;-64
2023/01/31 12:23:32;;;;;;;10.45;4.13;;;8.50;98.60;;;;;;4947347;28;20035;-64
2023/01/31 12:26:17;;;;;;;12.55;4.22;;;8.50;98.70;;;;;;5020340;28;20348;-64
2023/01/31 12:29:24;;;;;;;12.73;4.22;;;8.50;98.80;;;;;;5030842;28;20090;-64
2023/01/31 12:32:11;;;;;;;14.80;5.07;;;8.50;98.90;;;;;;5031095;28;20036;-64
2023/01/31 12:35:15;;;;;;;10.73;5.20;;;8.40;98.90;;;;;;5024279;28;20055;-64
2023/01/31 12:37:50;;;;;;;12.73;5.45;;;8.40;99.00;;;;;;5031400;28;20056;-64
2023/01/31 12:40:35;;;;;;;12.52;5.20;;;8.40;99.00;;;;;;5029432;28;20129;-64
2023/01/31 12:43:03;;;;;;;8.63;4.03;;;8.40;99.10;;;;;;5032303;28;20029;-64
2023/01/31 12:45:52;;;;;;;12.88;4.82;;;8.40;99.20;;;;;;5031250;28;20035;-64
2023/01/31 12:48:29;;;;;;;10.20;4.65;;;8.40;99.20;;;;;;5030962;28;20044;-64
2023/01/31 12:51:19;;;;;;;10.60;3.95;;;8.40;99.30;;;;;;5028624;28;20087;-64
2023/01/31 12:54:06;;;;;;;8.23;3.67;;;8.30;99.30;;;;;;5031328;28;20601;-64
2023/01/31 12:56:41;;;;;;;13.90;4.82;;;8.30;99.30;;;;;;5034327;28;20374;-64
2023/01/31 12:59:38;;;;;;;10.68;4.60;;;8.30;99.40;;;;;;5030243;28;20041;-64
2023/01/31 13:02:06;;;;;;;8.50;4.07;;;8.30;99.50;;;;;;5029465;28;20044;-64
2023/01/31 13:05:06;;;;;;;14.07;5.57;;;8.30;99.50;;;;;;5027633;28;20399;-64
2023/01/31 13:07:35;;;;;;;11.70;4.25;;;8.20;99.60;;;;;;5030599;28;20037;-63
2023/01/31 13:10:04;;;;;;;8.20;4.30;;;8.20;99.60;;;;;;5028176;28;20035;-63
2023/01/31 13:12:34;;;;;;;8.85;4.40;;;8.10;99.70;;;;;;5028924;28;20387;-64
2023/01/31 13:15:13;;;;;;;9.82;4.85;;;8.10;99.90;;;;;;5028672;28;20475;-63
2023/01/31 13:17:40;;;;;;;9.07;4.20;;;8.10;99.90;;;;;;5029160;28;20306;-63
2023/01/31 13:20:21;;;;;;;9.98;4.78;;;8.10;99.90;;;;;;5028938;28;20025;-65
2023/01/31 13:22:54;;;;;;;12.73;5.35;;;8.00;99.90;;;;;;5028744;28;20035;-64
2023/01/31 13:25:28;;;;;;;9.68;5.20;;;8.00;99.90;;;;;;5032113;28;20025;-64
2023/01/31 13:28:28;;;;;;;10.10;4.38;;;8.00;99.90;;;;;;5029973;28;20195;-63
2023/01/31 13:31:08;;;;;;;9.65;4.15;;;8.00;99.90;;;;;;5029588;28;20040;-63
2023/01/31 13:34:02;;;;;;;9.65;4.60;;;8.00;99.90;;;;;;5029632;28;20053;-63
2023/01/31 13:36:37;;;;;;;10.48;4.50;;;8.00;99.90;;;;;;5032452;28;20032;-63
2023/01/31 13:39:11;;;;;;;8.02;4.43;;;7.90;99.90;;;;;;5029673;28;20045;-63
2023/01/31 13:41:38;;;;;;;11.23;5.32;;;7.90;99.90;;;;;;5029423;28;20029;-64
2023/01/31 13:44:05;;;;;;;12.55;6.03;;;7.90;99.90;;;;;;5031238;28;20041;-63
2023/01/31 13:47:07;;;;;;;10.52;4.88;;;7.90;99.90;;;;;;5023392;28;20091;-63
2023/01/31 13:49:43;;;;;;;12.30;4.32;;;7.90;99.90;;;;;;5012415;28;20045;-63
2023/01/31 13:52:17;;;;;;;9.63;4.25;;;7.90;99.90;;;;;;5030399;28;20037;-63
2023/01/31 13:54:52;;;;;;;8.75;3.78;;;7.80;99.90;;;;;;5029415;28;20171;-63
2023/01/31 13:57:23;;;;;;;6.18;3.70;;;7.80;99.90;;;;;;5036823;28;20408;-63
2023/01/31 13:59:55;;;;;;;9.32;4.25;;;7.80;99.90;;;;;;5029817;28;20035;-63
2023/01/31 14:02:21;;;;;;;9.02;4.32;;;7.80;99.90;;;;;;5012923;28;20048;-63
2023/01/31 14:04:47;;;;;;;11.38;4.65;;;7.80;99.90;;;;;;5030144;28;20033;-63
2023/01/31 14:07:14;;;;;;;7.38;4.00;;;7.80;99.90;;;;;;5029898;28;20026;-63
2023/01/31 14:10:04;;;;;;;10.27;4.03;;;7.80;99.90;;;;;;5030218;28;20477;-63
2023/01/31 14:12:33;;;;;;;5.05;3.25;;;7.80;99.90;;;;;;5021716;28;20029;-62
2023/01/31 14:14:59;;;;;;;6.07;3.42;;;7.70;99.90;;;;;;5031482;28;20387;-63
2023/01/31 14:17:29;;;;;;;7.43;3.97;;;7.70;99.90;;;;;;5028285;28;20045;-64
2023/01/31 14:19:59;;;;;;;6.38;4.50;;;7.60;99.90;;;;;;5030595;28;20048;-64
2023/01/31 14:22:30;;;;;;;5.68;3.00;;;7.60;99.90;;;;;;5029107;28;20045;-63